sensor_id;sensor_type;location;lat;lon;timestamp;temperature;humidity
1301;DHT22;59099;48.806;9.160;2022-12-11T00:00:43;-1.70;99.90
1301;DHT22;59099;48.806;9.160;2022-12-11T00:03:09;-1.80;99.90
1301;DHT22;59099;48.806;9.160;2022-12-11T00:05:41;-1.80;99.90
1301;DHT22;59099;48.806;9.160;2022-12-11T00:08:07;-1.70;99.90
1301;DHT22;59099;48.806;9.160;2022-12-11T00:10:35;-1.80;99.90
1301;DHT22;59099;48.806;9.160;2022-12-11T00:13:02;-1.80;99.90
1301;DHT22;59099;48.806;9.160;2022-12-11T00:15:28;-1.70;99.90
1301;DHT22;59099;48.806;9.160;2022-12-11T00:17:54;-1.70;99.90
1301;DHT22;59099;48.806;9.160;2022-12-11T00:20:20;-1.70;99.90
1301;DHT22;59099;48.806;9.160;2022-12-11T00:22:46;-1.70;99.90
1301;DHT22;59099;48.806;9.160;2022-12-11T00:25:12;-1.70;99.90
1301;DHT22;59099;48.806;9.160;2022-12-11T00:27:37;-1.80;99.90
1301;DHT22;59099;48.806;9.160;2022-12-11T00:30:04;-1.80;99.90
1301;DHT22;59099;48.806;9.160;2022-12-11T00:32:30;-1.80;99.90
1301;DHT22;59099;48.806;9.160;2022-12-11T00:34:56;-1.80;99.90
1301;DHT22;59099;48.806;9.160;2022-12-11T00:37:22;-1.70;99.90
1301;DHT22;59099;48.806;9.160;2022-12-11T00:39:48;-1.60;99.90
1301;DHT22;59099;48.806;9.160;2022-12-11T00:42:14;-1.80;99.90
1301;DHT22;59099;48.806;9.160;2022-12-11T00:44:40;-1.80;99.90
1301;DHT22;59099;48.806;9.160;2022-12-11T00:47:06;-1.80;99.90
1301;DHT22;59099;48.806;9.160;2022-12-11T00:49:31;-1.70;99.90
1301;DHT22;59099;48.806;9.160;2022-12-11T00:51:57;-1.70;99.90
1301;DHT22;59099;48.806;9.160;2022-12-11T00:54:23;-1.60;99.90
1301;DHT22;59099;48.806;9.160;2022-12-11T00:56:49;-1.60;99.90
1301;DHT22;59099;48.806;9.160;2022-12-11T00:59:15;-1.50;99.90
1301;DHT22;59099;48.806;9.160;2022-12-11T01:01:41;-1.40;99.90
1301;DHT22;59099;48.806;9.160;2022-12-11T01:04:07;-1.40;99.90
1301;DHT22;59099;48.806;9.160;2022-12-11T01:06:33;-1.40;99.90
1301;DHT22;59099;48.806;9.160;2022-12-11T01:08:58;-1.40;99.90
1301;DHT22;59099;48.806;9.160;2022-12-11T01:11:43;-1.30;99.90
1301;DHT22;59099;48.806;9.160;2022-12-11T01:14:09;-1.30;99.90
1301;DHT22;59099;48.806;9.160;2022-12-11T01:16:39;-1.20;99.90
1301;DHT22;59099;48.806;9.160;2022-12-11T01:26:53;-1.10;99.90
1301;DHT22;59099;48.806;9.160;2022-12-11T01:34:57;-1.00;99.90
1301;DHT22;59099;48.806;9.160;2022-12-11T01:37:23;-1.00;99.90
1301;DHT22;59099;48.806;9.160;2022-12-11T01:39:49;-1.00;99.90
1301;DHT22;59099;48.806;9.160;2022-12-11T01:42:17;-1.00;99.90
1301;DHT22;59099;48.806;9.160;2022-12-11T01:47:10;-0.80;99.90
1301;DHT22;59099;48.806;9.160;2022-12-11T01:49:36;-0.80;99.90
1301;DHT22;59099;48.806;9.160;2022-12-11T01:52:11;-0.70;99.90
1301;DHT22;59099;48.806;9.160;2022-12-11T01:54:40;-0.70;99.90
1301;DHT22;59099;48.806;9.160;2022-12-11T01:57:07;-0.60;99.90
1301;DHT22;59099;48.806;9.160;2022-12-11T01:59:42;-0.60;99.90
1301;DHT22;59099;48.806;9.160;2022-12-11T02:02:21;-0.60;99.90
1301;DHT22;59099;48.806;9.160;2022-12-11T02:04:48;-0.70;99.90
1301;DHT22;59099;48.806;9.160;2022-12-11T02:07:14;-0.70;99.90
1301;DHT22;59099;48.806;9.160;2022-12-11T02:09:42;-0.70;99.90
1301;DHT22;59099;48.806;9.160;2022-12-11T02:17:20;-0.70;99.90
1301;DHT22;59099;48.806;9.160;2022-12-11T02:23:07;-0.70;99.90
1301;DHT22;59099;48.806;9.160;2022-12-11T02:28:48;-0.70;99.90
1301;DHT22;59099;48.806;9.160;2022-12-11T02:31:31;-0.70;99.90
1301;DHT22;59099;48.806;9.160;2022-12-11T02:34:16;-0.60;99.90
1301;DHT22;59099;48.806;9.160;2022-12-11T02:36:47;-0.60;99.90
1301;DHT22;59099;48.806;9.160;2022-12-11T02:39:15;-0.50;99.90
1301;DHT22;59099;48.806;9.160;2022-12-11T02:41:45;-0.50;99.90
1301;DHT22;59099;48.806;9.160;2022-12-11T02:44:14;-0.30;99.90
1301;DHT22;59099;48.806;9.160;2022-12-11T02:46:41;-0.30;99.90
1301;DHT22;59099;48.806;9.160;2022-12-11T02:49:09;-0.40;99.90
1301;DHT22;59099;48.806;9.160;2022-12-11T02:51:39;-0.40;99.90
1301;DHT22;59099;48.806;9.160;2022-12-11T02:54:11;-0.40;99.90
1301;DHT22;59099;48.806;9.160;2022-12-11T02:56:44;-0.40;99.90
1301;DHT22;59099;48.806;9.160;2022-12-11T02:59:21;-0.30;99.90
1301;DHT22;59099;48.806;9.160;2022-12-11T03:01:49;-0.20;99.90
1301;DHT22;59099;48.806;9.160;2022-12-11T03:04:15;-0.20;99.90
1301;DHT22;59099;48.806;9.160;2022-12-11T03:06:44;-0.20;99.90
1301;DHT22;59099;48.806;9.160;2022-12-11T03:09:11;-0.30;99.90
1301;DHT22;59099;48.806;9.160;2022-12-11T03:11:37;-0.30;99.90
1301;DHT22;59099;48.806;9.160;2022-12-11T03:14:03;-0.20;99.90
1301;DHT22;59099;48.806;9.160;2022-12-11T03:19:39;-0.20;99.90
1301;DHT22;59099;48.806;9.160;2022-12-11T03:24:38;-0.20;99.90
1301;DHT22;59099;48.806;9.160;2022-12-11T03:27:25;-0.20;99.90
1301;DHT22;59099;48.806;9.160;2022-12-11T03:30:05;-0.20;99.90
1301;DHT22;59099;48.806;9.160;2022-12-11T03:32:38;-0.20;99.90
1301;DHT22;59099;48.806;9.160;2022-12-11T03:35:23;-0.20;99.90
1301;DHT22;59099;48.806;9.160;2022-12-11T03:37:51;-0.20;99.90
1301;DHT22;59099;48.806;9.160;2022-12-11T03:40:19;-0.20;99.90
1301;DHT22;59099;48.806;9.160;2022-12-11T03:42:47;-0.30;99.90
1301;DHT22;59099;48.806;9.160;2022-12-11T03:45:18;-0.30;99.90
1301;DHT22;59099;48.806;9.160;2022-12-11T03:47:45;-0.30;99.90
1301;DHT22;59099;48.806;9.160;2022-12-11T03:50:14;-0.20;99.90
1301;DHT22;59099;48.806;9.160;2022-12-11T03:52:44;-0.20;99.90
1301;DHT22;59099;48.806;9.160;2022-12-11T03:55:13;-0.20;99.90
1301;DHT22;59099;48.806;9.160;2022-12-11T03:57:40;-0.20;99.90
1301;DHT22;59099;48.806;9.160;2022-12-11T04:00:10;-0.30;99.90
1301;DHT22;59099;48.806;9.160;2022-12-11T04:02:39;-0.40;99.90
1301;DHT22;59099;48.806;9.160;2022-12-11T04:05:09;-0.40;99.90
1301;DHT22;59099;48.806;9.160;2022-12-11T04:07:35;-0.50;99.90
1301;DHT22;59099;48.806;9.160;2022-12-11T04:10:01;-0.60;99.90
1301;DHT22;59099;48.806;9.160;2022-12-11T04:12:27;-0.70;99.90
1301;DHT22;59099;48.806;9.160;2022-12-11T04:14:53;-0.70;99.90
1301;DHT22;59099;48.806;9.160;2022-12-11T04:17:35;-0.70;99.90
1301;DHT22;59099;48.806;9.160;2022-12-11T04:20:20;-0.60;99.90
1301;DHT22;59099;48.806;9.160;2022-12-11T04:23:08;-0.60;99.90
1301;DHT22;59099;48.806;9.160;2022-12-11T04:26:02;-0.60;99.90
1301;DHT22;59099;48.806;9.160;2022-12-11T04:28:27;-0.70;99.90
1301;DHT22;59099;48.806;9.160;2022-12-11T04:30:53;-0.80;99.90
1301;DHT22;59099;48.806;9.160;2022-12-11T04:33:19;-0.80;99.90
1301;DHT22;59099;48.806;9.160;2022-12-11T04:35:45;-0.80;99.90
1301;DHT22;59099;48.806;9.160;2022-12-11T04:38:26;-0.80;99.90
1301;DHT22;59099;48.806;9.160;2022-12-11T04:41:04;-0.80;99.90
1301;DHT22;59099;48.806;9.160;2022-12-11T04:43:31;-0.80;99.90
1301;DHT22;59099;48.806;9.160;2022-12-11T04:46:05;-0.90;99.90
1301;DHT22;59099;48.806;9.160;2022-12-11T04:48:31;-0.80;99.90
1301;DHT22;59099;48.806;9.160;2022-12-11T04:50:57;-0.90;99.90
1301;DHT22;59099;48.806;9.160;2022-12-11T04:53:24;-0.80;99.90
1301;DHT22;59099;48.806;9.160;2022-12-11T04:55:50;-0.80;99.90
1301;DHT22;59099;48.806;9.160;2022-12-11T04:58:16;-0.80;99.90
1301;DHT22;59099;48.806;9.160;2022-12-11T05:00:42;-0.80;99.90
1301;DHT22;59099;48.806;9.160;2022-12-11T05:03:08;-0.80;99.90
1301;DHT22;59099;48.806;9.160;2022-12-11T05:05:33;-0.80;99.90
1301;DHT22;59099;48.806;9.160;2022-12-11T05:07:59;-0.80;99.90
1301;DHT22;59099;48.806;9.160;2022-12-11T05:10:25;-0.70;99.90
1301;DHT22;59099;48.806;9.160;2022-12-11T05:12:51;-0.80;99.90
1301;DHT22;59099;48.806;9.160;2022-12-11T05:15:17;-0.80;99.90
1301;DHT22;59099;48.806;9.160;2022-12-11T05:17:42;-0.70;99.90
1301;DHT22;59099;48.806;9.160;2022-12-11T05:20:09;-0.70;99.90
1301;DHT22;59099;48.806;9.160;2022-12-11T05:22:36;-0.60;99.90
1301;DHT22;59099;48.806;9.160;2022-12-11T05:25:03;-0.60;99.90
1301;DHT22;59099;48.806;9.160;2022-12-11T05:27:28;-0.70;99.90
1301;DHT22;59099;48.806;9.160;2022-12-11T05:29:54;-0.70;99.90
1301;DHT22;59099;48.806;9.160;2022-12-11T05:32:20;-0.80;99.90
1301;DHT22;59099;48.806;9.160;2022-12-11T05:34:46;-0.90;99.90
1301;DHT22;59099;48.806;9.160;2022-12-11T05:37:12;-0.90;99.90
1301;DHT22;59099;48.806;9.160;2022-12-11T05:39:38;-0.90;99.90
1301;DHT22;59099;48.806;9.160;2022-12-11T05:42:03;-1.00;99.90
1301;DHT22;59099;48.806;9.160;2022-12-11T05:44:29;-1.00;99.90
1301;DHT22;59099;48.806;9.160;2022-12-11T05:46:55;-1.10;99.90
1301;DHT22;59099;48.806;9.160;2022-12-11T05:49:21;-1.10;99.90
1301;DHT22;59099;48.806;9.160;2022-12-11T05:51:47;-1.10;99.90
1301;DHT22;59099;48.806;9.160;2022-12-11T05:54:12;-1.20;99.90
1301;DHT22;59099;48.806;9.160;2022-12-11T05:56:38;-1.20;99.90
1301;DHT22;59099;48.806;9.160;2022-12-11T05:59:05;-1.20;99.90
1301;DHT22;59099;48.806;9.160;2022-12-11T06:01:39;-1.20;99.90
1301;DHT22;59099;48.806;9.160;2022-12-11T06:04:06;-1.30;99.90
1301;DHT22;59099;48.806;9.160;2022-12-11T06:06:33;-1.30;99.90
1301;DHT22;59099;48.806;9.160;2022-12-11T06:08:59;-1.40;99.90
1301;DHT22;59099;48.806;9.160;2022-12-11T06:11:27;-1.40;99.90
1301;DHT22;59099;48.806;9.160;2022-12-11T06:13:53;-1.40;99.90
1301;DHT22;59099;48.806;9.160;2022-12-11T06:16:20;-1.40;99.90
1301;DHT22;59099;48.806;9.160;2022-12-11T06:18:46;-1.40;99.90
1301;DHT22;59099;48.806;9.160;2022-12-11T06:21:16;-1.50;99.90
1301;DHT22;59099;48.806;9.160;2022-12-11T06:23:44;-1.50;99.90
1301;DHT22;59099;48.806;9.160;2022-12-11T06:26:13;-1.50;99.90
1301;DHT22;59099;48.806;9.160;2022-12-11T06:28:39;-1.50;99.90
1301;DHT22;59099;48.806;9.160;2022-12-11T06:31:05;-1.50;99.90
1301;DHT22;59099;48.806;9.160;2022-12-11T06:33:33;-1.70;99.90
1301;DHT22;59099;48.806;9.160;2022-12-11T06:36:07;-1.70;99.90
1301;DHT22;59099;48.806;9.160;2022-12-11T06:38:35;-1.80;99.90
1301;DHT22;59099;48.806;9.160;2022-12-11T06:41:02;-1.80;99.90
1301;DHT22;59099;48.806;9.160;2022-12-11T06:43:32;-2.00;99.90
1301;DHT22;59099;48.806;9.160;2022-12-11T06:46:02;-2.00;99.90
1301;DHT22;59099;48.806;9.160;2022-12-11T06:48:28;-2.10;99.90
1301;DHT22;59099;48.806;9.160;2022-12-11T06:50:53;-2.10;99.90
1301;DHT22;59099;48.806;9.160;2022-12-11T06:53:19;-2.10;99.90
1301;DHT22;59099;48.806;9.160;2022-12-11T06:55:45;-2.10;99.90
1301;DHT22;59099;48.806;9.160;2022-12-11T06:58:11;-2.20;99.90
1301;DHT22;59099;48.806;9.160;2022-12-11T07:00:37;-2.20;99.90
1301;DHT22;59099;48.806;9.160;2022-12-11T07:03:04;-2.20;99.90
1301;DHT22;59099;48.806;9.160;2022-12-11T07:05:30;-2.20;99.90
1301;DHT22;59099;48.806;9.160;2022-12-11T07:07:56;-2.20;99.90
1301;DHT22;59099;48.806;9.160;2022-12-11T07:10:22;-2.30;99.90
1301;DHT22;59099;48.806;9.160;2022-12-11T07:12:50;-2.30;99.90
1301;DHT22;59099;48.806;9.160;2022-12-11T07:15:16;-2.40;99.90
1301;DHT22;59099;48.806;9.160;2022-12-11T07:17:42;-2.40;99.90
1301;DHT22;59099;48.806;9.160;2022-12-11T07:20:08;-2.40;99.90
1301;DHT22;59099;48.806;9.160;2022-12-11T07:22:34;-2.30;99.90
1301;DHT22;59099;48.806;9.160;2022-12-11T07:25:01;-2.40;99.90
1301;DHT22;59099;48.806;9.160;2022-12-11T07:27:26;-2.40;99.90
1301;DHT22;59099;48.806;9.160;2022-12-11T07:29:53;-2.20;99.90
1301;DHT22;59099;48.806;9.160;2022-12-11T07:32:20;-2.00;99.90
1301;DHT22;59099;48.806;9.160;2022-12-11T07:34:47;-2.00;99.90
1301;DHT22;59099;48.806;9.160;2022-12-11T07:37:14;-2.10;99.90
1301;DHT22;59099;48.806;9.160;2022-12-11T07:39:39;-2.10;99.90
1301;DHT22;59099;48.806;9.160;2022-12-11T07:42:05;-2.00;99.90
1301;DHT22;59099;48.806;9.160;2022-12-11T07:44:31;-2.00;99.90
1301;DHT22;59099;48.806;9.160;2022-12-11T07:46:57;-1.90;99.90
1301;DHT22;59099;48.806;9.160;2022-12-11T07:49:23;-1.90;99.90
1301;DHT22;59099;48.806;9.160;2022-12-11T07:51:49;-1.90;99.90
1301;DHT22;59099;48.806;9.160;2022-12-11T07:54:15;-1.90;99.90
1301;DHT22;59099;48.806;9.160;2022-12-11T07:56:42;-1.90;99.90
1301;DHT22;59099;48.806;9.160;2022-12-11T07:59:09;-1.80;99.90
1301;DHT22;59099;48.806;9.160;2022-12-11T08:01:39;-1.80;99.90
1301;DHT22;59099;48.806;9.160;2022-12-11T08:04:08;-1.70;99.90
1301;DHT22;59099;48.806;9.160;2022-12-11T08:06:37;-1.70;99.90
1301;DHT22;59099;48.806;9.160;2022-12-11T08:09:05;-1.60;99.90
1301;DHT22;59099;48.806;9.160;2022-12-11T08:11:31;-1.60;99.90
1301;DHT22;59099;48.806;9.160;2022-12-11T08:13:57;-1.50;99.90
1301;DHT22;59099;48.806;9.160;2022-12-11T08:16:25;-1.40;99.90
1301;DHT22;59099;48.806;9.160;2022-12-11T08:18:51;-1.30;99.90
1301;DHT22;59099;48.806;9.160;2022-12-11T08:21:23;-1.20;99.90
1301;DHT22;59099;48.806;9.160;2022-12-11T08:23:50;-1.10;99.90
1301;DHT22;59099;48.806;9.160;2022-12-11T08:26:20;-1.00;99.90
1301;DHT22;59099;48.806;9.160;2022-12-11T08:28:46;-1.00;99.90
1301;DHT22;59099;48.806;9.160;2022-12-11T08:31:13;-1.00;99.90
1301;DHT22;59099;48.806;9.160;2022-12-11T08:33:41;-1.00;99.90
1301;DHT22;59099;48.806;9.160;2022-12-11T08:36:09;-1.00;99.90
1301;DHT22;59099;48.806;9.160;2022-12-11T08:38:36;-1.10;99.90
1301;DHT22;59099;48.806;9.160;2022-12-11T08:41:15;-1.00;99.90
1301;DHT22;59099;48.806;9.160;2022-12-11T08:43:41;-0.90;99.90
1301;DHT22;59099;48.806;9.160;2022-12-11T08:46:08;-0.70;99.90
1301;DHT22;59099;48.806;9.160;2022-12-11T08:48:35;-0.60;99.90
1301;DHT22;59099;48.806;9.160;2022-12-11T08:51:07;-0.50;99.90
1301;DHT22;59099;48.806;9.160;2022-12-11T08:53:36;-0.50;99.90
1301;DHT22;59099;48.806;9.160;2022-12-11T08:56:05;-0.50;99.90
1301;DHT22;59099;48.806;9.160;2022-12-11T08:58:31;-0.40;99.90
1301;DHT22;59099;48.806;9.160;2022-12-11T09:00:57;-0.40;99.90
1301;DHT22;59099;48.806;9.160;2022-12-11T09:03:23;-0.40;99.90
1301;DHT22;59099;48.806;9.160;2022-12-11T09:05:49;-0.30;99.90
1301;DHT22;59099;48.806;9.160;2022-12-11T09:08:15;-0.20;99.90
1301;DHT22;59099;48.806;9.160;2022-12-11T09:10:41;-0.10;99.90
1301;DHT22;59099;48.806;9.160;2022-12-11T09:13:07;-0.10;99.90
1301;DHT22;59099;48.806;9.160;2022-12-11T09:15:33;0.00;99.90
1301;DHT22;59099;48.806;9.160;2022-12-11T09:17:59;0.00;99.90
1301;DHT22;59099;48.806;9.160;2022-12-11T09:20:25;0.00;99.90
1301;DHT22;59099;48.806;9.160;2022-12-11T09:22:51;0.10;99.90
1301;DHT22;59099;48.806;9.160;2022-12-11T09:25:17;0.10;99.90
1301;DHT22;59099;48.806;9.160;2022-12-11T09:27:43;0.30;99.90
1301;DHT22;59099;48.806;9.160;2022-12-11T09:30:09;0.40;99.90
1301;DHT22;59099;48.806;9.160;2022-12-11T09:32:35;0.50;99.90
1301;DHT22;59099;48.806;9.160;2022-12-11T09:35:01;0.60;99.90
1301;DHT22;59099;48.806;9.160;2022-12-11T09:37:26;0.70;99.90
1301;DHT22;59099;48.806;9.160;2022-12-11T09:39:52;0.80;99.90
1301;DHT22;59099;48.806;9.160;2022-12-11T09:42:39;1.00;99.90
1301;DHT22;59099;48.806;9.160;2022-12-11T09:45:11;1.10;99.90
1301;DHT22;59099;48.806;9.160;2022-12-11T09:47:42;1.10;99.90
1301;DHT22;59099;48.806;9.160;2022-12-11T09:53:22;1.40;99.90
1301;DHT22;59099;48.806;9.160;2022-12-11T09:55:55;1.40;99.90
1301;DHT22;59099;48.806;9.160;2022-12-11T10:17:30;2.20;99.90
1301;DHT22;59099;48.806;9.160;2022-12-11T10:20:02;2.20;99.90
1301;DHT22;59099;48.806;9.160;2022-12-11T10:22:31;2.20;99.90
1301;DHT22;59099;48.806;9.160;2022-12-11T10:25:18;2.40;99.90
1301;DHT22;59099;48.806;9.160;2022-12-11T10:27:44;2.40;99.90
1301;DHT22;59099;48.806;9.160;2022-12-11T10:30:22;2.40;99.90
1301;DHT22;59099;48.806;9.160;2022-12-11T10:35:35;2.60;99.90
1301;DHT22;59099;48.806;9.160;2022-12-11T10:40:54;2.80;99.90
1301;DHT22;59099;48.806;9.160;2022-12-11T10:43:19;2.80;99.90
1301;DHT22;59099;48.806;9.160;2022-12-11T10:45:57;2.60;99.90
1301;DHT22;59099;48.806;9.160;2022-12-11T10:48:26;2.50;99.90
1301;DHT22;59099;48.806;9.160;2022-12-11T10:51:06;2.30;99.90
1301;DHT22;59099;48.806;9.160;2022-12-11T10:53:33;2.40;99.90
1301;DHT22;59099;48.806;9.160;2022-12-11T10:56:00;2.60;99.90
1301;DHT22;59099;48.806;9.160;2022-12-11T10:58:29;2.70;99.90
1301;DHT22;59099;48.806;9.160;2022-12-11T11:01:13;2.80;99.90
1301;DHT22;59099;48.806;9.160;2022-12-11T11:06:25;2.80;99.90
1301;DHT22;59099;48.806;9.160;2022-12-11T11:08:53;2.80;99.90
1301;DHT22;59099;48.806;9.160;2022-12-11T11:13:45;2.80;99.90
1301;DHT22;59099;48.806;9.160;2022-12-11T11:16:16;2.70;99.90
1301;DHT22;59099;48.806;9.160;2022-12-11T11:18:53;2.80;99.90
1301;DHT22;59099;48.806;9.160;2022-12-11T11:21:22;3.10;99.90
1301;DHT22;59099;48.806;9.160;2022-12-11T11:23:50;3.20;99.90
1301;DHT22;59099;48.806;9.160;2022-12-11T11:26:17;3.20;99.90
1301;DHT22;59099;48.806;9.160;2022-12-11T11:28:48;3.30;99.90
1301;DHT22;59099;48.806;9.160;2022-12-11T11:31:16;3.50;99.90
1301;DHT22;59099;48.806;9.160;2022-12-11T11:34:06;3.60;99.90
1301;DHT22;59099;48.806;9.160;2022-12-11T11:36:34;3.60;99.90
1301;DHT22;59099;48.806;9.160;2022-12-11T11:39:25;3.60;99.90
1301;DHT22;59099;48.806;9.160;2022-12-11T11:45:09;3.50;99.90
1301;DHT22;59099;48.806;9.160;2022-12-11T11:47:40;3.30;99.90
1301;DHT22;59099;48.806;9.160;2022-12-11T11:50:30;3.20;99.90
1301;DHT22;59099;48.806;9.160;2022-12-11T11:53:07;3.20;99.90
1301;DHT22;59099;48.806;9.160;2022-12-11T11:58:38;3.30;99.90
1301;DHT22;59099;48.806;9.160;2022-12-11T12:01:13;3.30;99.90
1301;DHT22;59099;48.806;9.160;2022-12-11T12:03:39;3.30;99.90
1301;DHT22;59099;48.806;9.160;2022-12-11T12:08:45;3.00;99.90
1301;DHT22;59099;48.806;9.160;2022-12-11T12:11:33;2.80;99.90
1301;DHT22;59099;48.806;9.160;2022-12-11T12:22:15;2.50;99.90
1301;DHT22;59099;48.806;9.160;2022-12-11T12:27:20;2.20;99.90
1301;DHT22;59099;48.806;9.160;2022-12-11T12:29:53;2.30;99.90
1301;DHT22;59099;48.806;9.160;2022-12-11T12:32:37;2.40;99.90
1301;DHT22;59099;48.806;9.160;2022-12-11T12:38:26;2.60;99.90
1301;DHT22;59099;48.806;9.160;2022-12-11T12:41:04;2.70;99.90
1301;DHT22;59099;48.806;9.160;2022-12-11T12:46:20;2.90;99.90
1301;DHT22;59099;48.806;9.160;2022-12-11T12:48:48;2.90;99.90
1301;DHT22;59099;48.806;9.160;2022-12-11T12:51:15;3.00;99.90
1301;DHT22;59099;48.806;9.160;2022-12-11T12:53:47;2.80;99.90
1301;DHT22;59099;48.806;9.160;2022-12-11T12:56:15;2.80;99.90
1301;DHT22;59099;48.806;9.160;2022-12-11T12:58:43;2.90;99.90
1301;DHT22;59099;48.806;9.160;2022-12-11T13:04:03;2.90;99.90
1301;DHT22;59099;48.806;9.160;2022-12-11T13:06:39;2.80;99.90
1301;DHT22;59099;48.806;9.160;2022-12-11T13:09:17;2.80;99.90
1301;DHT22;59099;48.806;9.160;2022-12-11T13:11:45;2.70;99.90
1301;DHT22;59099;48.806;9.160;2022-12-11T13:16:42;2.60;99.90
1301;DHT22;59099;48.806;9.160;2022-12-11T13:24:44;2.20;99.90
1301;DHT22;59099;48.806;9.160;2022-12-11T13:27:22;2.30;99.90
1301;DHT22;59099;48.806;9.160;2022-12-11T13:29:48;2.20;99.90
1301;DHT22;59099;48.806;9.160;2022-12-11T13:34:49;2.00;99.90
1301;DHT22;59099;48.806;9.160;2022-12-11T13:37:37;1.90;99.90
1301;DHT22;59099;48.806;9.160;2022-12-11T13:40:13;2.00;99.90
1301;DHT22;59099;48.806;9.160;2022-12-11T13:45:37;2.70;99.90
1301;DHT22;59099;48.806;9.160;2022-12-11T13:48:15;2.80;99.90
1301;DHT22;59099;48.806;9.160;2022-12-11T13:50:43;2.70;99.90
1301;DHT22;59099;48.806;9.160;2022-12-11T13:53:17;2.50;99.90
1301;DHT22;59099;48.806;9.160;2022-12-11T13:55:43;2.30;99.90
1301;DHT22;59099;48.806;9.160;2022-12-11T13:58:19;2.20;99.90
1301;DHT22;59099;48.806;9.160;2022-12-11T14:03:24;2.00;99.90
1301;DHT22;59099;48.806;9.160;2022-12-11T14:05:50;1.80;99.90
1301;DHT22;59099;48.806;9.160;2022-12-11T14:08:20;1.70;99.90
1301;DHT22;59099;48.806;9.160;2022-12-11T14:10:53;1.60;99.90
1301;DHT22;59099;48.806;9.160;2022-12-11T14:13:21;1.60;99.90
1301;DHT22;59099;48.806;9.160;2022-12-11T14:15:48;1.50;99.90
1301;DHT22;59099;48.806;9.160;2022-12-11T14:18:20;1.50;99.90
1301;DHT22;59099;48.806;9.160;2022-12-11T14:20:54;1.40;99.90
1301;DHT22;59099;48.806;9.160;2022-12-11T14:23:24;1.40;99.90
1301;DHT22;59099;48.806;9.160;2022-12-11T14:25:54;1.40;99.90
1301;DHT22;59099;48.806;9.160;2022-12-11T14:28:22;1.50;99.90
1301;DHT22;59099;48.806;9.160;2022-12-11T14:30:53;1.50;99.90
1301;DHT22;59099;48.806;9.160;2022-12-11T14:33:22;1.50;99.90
1301;DHT22;59099;48.806;9.160;2022-12-11T14:35:54;1.40;99.90
1301;DHT22;59099;48.806;9.160;2022-12-11T14:38:32;1.40;99.90
1301;DHT22;59099;48.806;9.160;2022-12-11T14:41:10;1.40;99.90
1301;DHT22;59099;48.806;9.160;2022-12-11T14:43:42;1.40;99.90
1301;DHT22;59099;48.806;9.160;2022-12-11T14:46:22;1.30;99.90
1301;DHT22;59099;48.806;9.160;2022-12-11T14:48:57;1.30;99.90
1301;DHT22;59099;48.806;9.160;2022-12-11T14:51:27;1.10;99.90
1301;DHT22;59099;48.806;9.160;2022-12-11T14:53:54;1.10;99.90
1301;DHT22;59099;48.806;9.160;2022-12-11T14:56:24;1.10;99.90
1301;DHT22;59099;48.806;9.160;2022-12-11T14:59:20;0.90;99.90
1301;DHT22;59099;48.806;9.160;2022-12-11T15:01:59;0.90;99.90
1301;DHT22;59099;48.806;9.160;2022-12-11T15:04:30;0.90;99.90
1301;DHT22;59099;48.806;9.160;2022-12-11T15:06:58;0.80;99.90
1301;DHT22;59099;48.806;9.160;2022-12-11T15:12:11;0.80;99.90
1301;DHT22;59099;48.806;9.160;2022-12-11T15:14:49;0.70;99.90
1301;DHT22;59099;48.806;9.160;2022-12-11T15:17:17;0.70;99.90
1301;DHT22;59099;48.806;9.160;2022-12-11T15:19:49;0.70;99.90
1301;DHT22;59099;48.806;9.160;2022-12-11T15:22:17;0.70;99.90
1301;DHT22;59099;48.806;9.160;2022-12-11T15:24:44;0.80;99.90
1301;DHT22;59099;48.806;9.160;2022-12-11T15:27:34;0.80;99.90
1301;DHT22;59099;48.806;9.160;2022-12-11T15:35:35;0.70;99.90
1301;DHT22;59099;48.806;9.160;2022-12-11T15:38:05;0.60;99.90
1301;DHT22;59099;48.806;9.160;2022-12-11T15:40:31;0.70;99.90
1301;DHT22;59099;48.806;9.160;2022-12-11T15:43:02;0.60;99.90
1301;DHT22;59099;48.806;9.160;2022-12-11T15:45:28;0.60;99.90
1301;DHT22;59099;48.806;9.160;2022-12-11T15:47:55;0.60;99.90
1301;DHT22;59099;48.806;9.160;2022-12-11T15:50:28;0.60;99.90
1301;DHT22;59099;48.806;9.160;2022-12-11T15:53:03;0.60;99.90
1301;DHT22;59099;48.806;9.160;2022-12-11T15:55:29;0.50;99.90
1301;DHT22;59099;48.806;9.160;2022-12-11T15:58:04;0.50;99.90
1301;DHT22;59099;48.806;9.160;2022-12-11T16:00:31;0.50;99.90
1301;DHT22;59099;48.806;9.160;2022-12-11T16:02:57;0.50;99.90
1301;DHT22;59099;48.806;9.160;2022-12-11T16:05:23;0.50;99.90
1301;DHT22;59099;48.806;9.160;2022-12-11T16:07:50;0.50;99.90
1301;DHT22;59099;48.806;9.160;2022-12-11T16:10:19;0.50;99.90
1301;DHT22;59099;48.806;9.160;2022-12-11T16:12:45;0.40;99.90
1301;DHT22;59099;48.806;9.160;2022-12-11T16:15:13;0.50;99.90
1301;DHT22;59099;48.806;9.160;2022-12-11T16:17:40;0.50;99.90
1301;DHT22;59099;48.806;9.160;2022-12-11T16:20:07;0.50;99.90
1301;DHT22;59099;48.806;9.160;2022-12-11T16:22:34;0.50;99.90
1301;DHT22;59099;48.806;9.160;2022-12-11T16:25:00;0.60;99.90
1301;DHT22;59099;48.806;9.160;2022-12-11T16:27:25;0.50;99.90
1301;DHT22;59099;48.806;9.160;2022-12-11T16:29:51;0.40;99.90
1301;DHT22;59099;48.806;9.160;2022-12-11T16:32:18;0.30;99.90
1301;DHT22;59099;48.806;9.160;2022-12-11T16:34:44;0.20;99.90
1301;DHT22;59099;48.806;9.160;2022-12-11T16:37:10;0.20;99.90
1301;DHT22;59099;48.806;9.160;2022-12-11T16:39:36;0.30;99.90
1301;DHT22;59099;48.806;9.160;2022-12-11T16:42:07;0.20;99.90
1301;DHT22;59099;48.806;9.160;2022-12-11T16:44:33;0.10;99.90
1301;DHT22;59099;48.806;9.160;2022-12-11T16:46:58;0.00;99.90
1301;DHT22;59099;48.806;9.160;2022-12-11T16:49:24;0.00;99.90
1301;DHT22;59099;48.806;9.160;2022-12-11T16:51:50;-0.10;99.90
1301;DHT22;59099;48.806;9.160;2022-12-11T16:54:16;-0.10;99.90
1301;DHT22;59099;48.806;9.160;2022-12-11T16:56:42;-0.10;99.90
1301;DHT22;59099;48.806;9.160;2022-12-11T16:59:08;-0.10;99.90
1301;DHT22;59099;48.806;9.160;2022-12-11T17:01:35;-0.10;99.90
1301;DHT22;59099;48.806;9.160;2022-12-11T17:04:01;-0.10;99.90
1301;DHT22;59099;48.806;9.160;2022-12-11T17:06:27;-0.20;99.90
1301;DHT22;59099;48.806;9.160;2022-12-11T17:08:53;-0.30;99.90
1301;DHT22;59099;48.806;9.160;2022-12-11T17:11:20;-0.30;99.90
1301;DHT22;59099;48.806;9.160;2022-12-11T17:13:47;-0.30;99.90
1301;DHT22;59099;48.806;9.160;2022-12-11T17:16:16;-0.30;99.90
1301;DHT22;59099;48.806;9.160;2022-12-11T17:18:43;-0.40;99.90
1301;DHT22;59099;48.806;9.160;2022-12-11T17:21:14;-0.30;99.90
1301;DHT22;59099;48.806;9.160;2022-12-11T17:23:40;-0.30;99.90
1301;DHT22;59099;48.806;9.160;2022-12-11T17:26:07;-0.20;99.90
1301;DHT22;59099;48.806;9.160;2022-12-11T17:28:33;-0.10;99.90
1301;DHT22;59099;48.806;9.160;2022-12-11T17:31:03;-0.10;99.90
1301;DHT22;59099;48.806;9.160;2022-12-11T17:33:30;-0.20;99.90
1301;DHT22;59099;48.806;9.160;2022-12-11T17:35:59;-0.10;99.90
1301;DHT22;59099;48.806;9.160;2022-12-11T17:38:25;0.00;99.90
1301;DHT22;59099;48.806;9.160;2022-12-11T17:40:51;0.00;99.90
1301;DHT22;59099;48.806;9.160;2022-12-11T17:43:17;-0.10;99.90
1301;DHT22;59099;48.806;9.160;2022-12-11T17:45:45;0.00;99.90
1301;DHT22;59099;48.806;9.160;2022-12-11T17:48:12;0.00;99.90
1301;DHT22;59099;48.806;9.160;2022-12-11T17:50:43;0.00;99.90
1301;DHT22;59099;48.806;9.160;2022-12-11T17:53:10;0.00;99.90
1301;DHT22;59099;48.806;9.160;2022-12-11T17:55:38;0.00;99.90
1301;DHT22;59099;48.806;9.160;2022-12-11T17:58:14;0.10;99.90
1301;DHT22;59099;48.806;9.160;2022-12-11T18:00:42;0.00;99.90
1301;DHT22;59099;48.806;9.160;2022-12-11T18:03:08;0.00;99.90